sensor_id;sensor_type;location;lat;lon;timestamp;temperature;humidity
39695;DHT22;25367;-35.352;149.036;2024-01-30T04:55:09;26.20;54.30
39695;DHT22;25367;-35.352;149.036;2024-01-30T04:57:39;26.30;55.50
39695;DHT22;25367;-35.352;149.036;2024-01-30T05:00:10;26.50;54.60
39695;DHT22;25367;-35.352;149.036;2024-01-30T05:02:39;26.70;53.60
39695;DHT22;25367;-35.352;149.036;2024-01-30T05:05:09;26.80;53.20
39695;DHT22;25367;-35.352;149.036;2024-01-30T05:07:41;26.90;52.60
39695;DHT22;25367;-35.352;149.036;2024-01-30T05:10:13;27.00;51.70
39695;DHT22;25367;-35.352;149.036;2024-01-30T05:12:42;27.00;50.70
39695;DHT22;25367;-35.352;149.036;2024-01-30T05:15:12;27.00;49.70
39695;DHT22;25367;-35.352;149.036;2024-01-30T05:17:41;27.00;49.30
39695;DHT22;25367;-35.352;149.036;2024-01-30T05:20:12;27.00;48.60
39695;DHT22;25367;-35.352;149.036;2024-01-30T05:22:42;27.00;48.10
39695;DHT22;25367;-35.352;149.036;2024-01-30T05:25:13;27.00;47.60
39695;DHT22;25367;-35.352;149.036;2024-01-30T05:27:43;26.90;47.40
39695;DHT22;25367;-35.352;149.036;2024-01-30T05:30:13;26.90;47.10
39695;DHT22;25367;-35.352;149.036;2024-01-30T05:32:43;26.80;46.70
39695;DHT22;25367;-35.352;149.036;2024-01-30T05:35:12;26.80;46.40
39695;DHT22;25367;-35.352;149.036;2024-01-30T05:37:42;26.80;46.00
39695;DHT22;25367;-35.352;149.036;2024-01-30T05:40:14;26.80;45.80
39695;DHT22;25367;-35.352;149.036;2024-01-30T05:42:43;26.70;45.50
39695;DHT22;25367;-35.352;149.036;2024-01-30T05:45:13;26.60;45.20
39695;DHT22;25367;-35.352;149.036;2024-01-30T05:47:42;26.50;44.90
39695;DHT22;25367;-35.352;149.036;2024-01-30T05:50:12;26.50;44.60
39695;DHT22;25367;-35.352;149.036;2024-01-30T05:52:41;26.40;44.50
39695;DHT22;25367;-35.352;149.036;2024-01-30T05:55:13;26.30;44.40
39695;DHT22;25367;-35.352;149.036;2024-01-30T05:57:43;26.30;44.40
39695;DHT22;25367;-35.352;149.036;2024-01-30T06:00:13;26.30;44.80
39695;DHT22;25367;-35.352;149.036;2024-01-30T06:02:42;26.30;45.00
39695;DHT22;25367;-35.352;149.036;2024-01-30T06:05:12;26.30;45.20
39695;DHT22;25367;-35.352;149.036;2024-01-30T06:07:41;26.30;45.40
39695;DHT22;25367;-35.352;149.036;2024-01-30T06:10:13;26.30;45.60
39695;DHT22;25367;-35.352;149.036;2024-01-30T06:12:43;26.30;46.00
39695;DHT22;25367;-35.352;149.036;2024-01-30T06:15:13;26.30;46.20
39695;DHT22;25367;-35.352;149.036;2024-01-30T06:17:42;26.30;46.30
39695;DHT22;25367;-35.352;149.036;2024-01-30T06:20:12;26.40;46.60
39695;DHT22;25367;-35.352;149.036;2024-01-30T06:22:41;26.40;46.80
39695;DHT22;25367;-35.352;149.036;2024-01-30T06:25:13;26.50;47.10
39695;DHT22;25367;-35.352;149.036;2024-01-30T06:27:42;26.50;47.20
39695;DHT22;25367;-35.352;149.036;2024-01-30T06:30:12;26.60;47.40
39695;DHT22;25367;-35.352;149.036;2024-01-30T06:32:42;26.60;47.50
39695;DHT22;25367;-35.352;149.036;2024-01-30T06:35:12;26.70;47.70
39695;DHT22;25367;-35.352;149.036;2024-01-30T06:37:41;26.80;47.90
39695;DHT22;25367;-35.352;149.036;2024-01-30T06:40:14;26.80;48.00
39695;DHT22;25367;-35.352;149.036;2024-01-30T06:42:43;26.90;48.30
39695;DHT22;25367;-35.352;149.036;2024-01-30T06:45:13;27.00;48.50
39695;DHT22;25367;-35.352;149.036;2024-01-30T06:47:42;27.00;48.50
39695;DHT22;25367;-35.352;149.036;2024-01-30T06:50:12;27.10;48.80
39695;DHT22;25367;-35.352;149.036;2024-01-30T06:52:42;27.10;48.80
39695;DHT22;25367;-35.352;149.036;2024-01-30T06:55:13;27.20;48.80
39695;DHT22;25367;-35.352;149.036;2024-01-30T06:57:43;27.30;48.90
39695;DHT22;25367;-35.352;149.036;2024-01-30T07:00:13;27.30;49.00
39695;DHT22;25367;-35.352;149.036;2024-01-30T09:30:19;26.00;52.00
39695;DHT22;25367;-35.352;149.036;2024-01-30T09:32:48;26.10;53.20
39695;DHT22;25367;-35.352;149.036;2024-01-30T09:35:18;26.20;53.10
39695;DHT22;25367;-35.352;149.036;2024-01-30T09:37:47;26.50;53.00
39695;DHT22;25367;-35.352;149.036;2024-01-30T09:40:17;26.60;52.90
39695;DHT22;25367;-35.352;149.036;2024-01-30T09:42:48;26.80;53.10
39695;DHT22;25367;-35.352;149.036;2024-01-30T09:45:23;26.90;52.70
39695;DHT22;25367;-35.352;149.036;2024-01-30T09:47:53;27.00;52.70
39695;DHT22;25367;-35.352;149.036;2024-01-30T09:50:23;27.00;52.60
39695;DHT22;25367;-35.352;149.036;2024-01-30T09:52:52;27.10;52.60
39695;DHT22;25367;-35.352;149.036;2024-01-30T09:55:23;27.20;52.50
39695;DHT22;25367;-35.352;149.036;2024-01-30T09:57:53;27.30;52.50
39695;DHT22;25367;-35.352;149.036;2024-01-30T10:00:25;27.30;52.40
39695;DHT22;25367;-35.352;149.036;2024-01-30T10:02:54;27.40;52.50
39695;DHT22;25367;-35.352;149.036;2024-01-30T10:05:28;27.40;52.50
39695;DHT22;25367;-35.352;149.036;2024-01-30T10:07:59;27.50;52.40
39695;DHT22;25367;-35.352;149.036;2024-01-30T10:10:28;27.60;52.60
39695;DHT22;25367;-35.352;149.036;2024-01-30T10:12:58;27.60;52.40
39695;DHT22;25367;-35.352;149.036;2024-01-30T10:15:29;27.60;52.50
39695;DHT22;25367;-35.352;149.036;2024-01-30T10:17:59;27.70;52.50
39695;DHT22;25367;-35.352;149.036;2024-01-30T10:20:28;27.70;52.30
39695;DHT22;25367;-35.352;149.036;2024-01-30T10:22:58;27.80;52.50
39695;DHT22;25367;-35.352;149.036;2024-01-30T10:25:28;27.80;52.40
39695;DHT22;25367;-35.352;149.036;2024-01-30T10:27:58;27.80;52.30
39695;DHT22;25367;-35.352;149.036;2024-01-30T10:30:30;27.90;52.30
39695;DHT22;25367;-35.352;149.036;2024-01-30T10:32:59;27.90;52.20
39695;DHT22;25367;-35.352;149.036;2024-01-30T10:35:29;27.90;52.30
39695;DHT22;25367;-35.352;149.036;2024-01-30T10:37:58;28.00;52.30
39695;DHT22;25367;-35.352;149.036;2024-01-30T10:40:29;28.00;52.30
39695;DHT22;25367;-35.352;149.036;2024-01-30T10:43:02;28.00;52.20
39695;DHT22;25367;-35.352;149.036;2024-01-30T10:45:36;28.00;52.10
39695;DHT22;25367;-35.352;149.036;2024-01-30T10:48:09;28.10;52.20
39695;DHT22;25367;-35.352;149.036;2024-01-30T10:50:40;28.10;52.20
39695;DHT22;25367;-35.352;149.036;2024-01-30T10:53:10;28.10;52.20
39695;DHT22;25367;-35.352;149.036;2024-01-30T10:55:40;28.10;52.20
39695;DHT22;25367;-35.352;149.036;2024-01-30T10:58:10;28.10;52.20
39695;DHT22;25367;-35.352;149.036;2024-01-30T11:00:43;28.20;52.20
39695;DHT22;25367;-35.352;149.036;2024-01-30T11:03:13;28.20;52.20
39695;DHT22;25367;-35.352;149.036;2024-01-30T11:05:42;28.20;52.20
39695;DHT22;25367;-35.352;149.036;2024-01-30T11:08:22;28.20;52.20
39695;DHT22;25367;-35.352;149.036;2024-01-30T11:10:56;28.20;52.10
39695;DHT22;25367;-35.352;149.036;2024-01-30T11:13:29;28.30;52.20
39695;DHT22;25367;-35.352;149.036;2024-01-30T11:16:04;28.30;52.20
39695;DHT22;25367;-35.352;149.036;2024-01-30T11:18:36;28.30;52.20
39695;DHT22;25367;-35.352;149.036;2024-01-30T11:21:06;28.30;52.20
39695;DHT22;25367;-35.352;149.036;2024-01-30T11:23:35;28.30;52.20
39695;DHT22;25367;-35.352;149.036;2024-01-30T11:26:05;28.30;52.20
39695;DHT22;25367;-35.352;149.036;2024-01-30T11:28:35;28.40;52.10
39695;DHT22;25367;-35.352;149.036;2024-01-30T11:31:20;28.40;52.20
39695;DHT22;25367;-35.352;149.036;2024-01-30T11:33:53;28.40;52.10
39695;DHT22;25367;-35.352;149.036;2024-01-30T11:36:26;28.40;52.30
39695;DHT22;25367;-35.352;149.036;2024-01-30T11:38:57;28.40;52.30
39695;DHT22;25367;-35.352;149.036;2024-01-30T11:41:27;28.40;52.20
39695;DHT22;25367;-35.352;149.036;2024-01-30T11:43:57;28.50;52.30
39695;DHT22;25367;-35.352;149.036;2024-01-30T11:46:30;28.50;52.30
39695;DHT22;25367;-35.352;149.036;2024-01-30T11:48:59;28.50;52.20
39695;DHT22;25367;-35.352;149.036;2024-01-30T11:51:32;28.50;52.20
39695;DHT22;25367;-35.352;149.036;2024-01-30T11:54:02;28.50;52.10
39695;DHT22;25367;-35.352;149.036;2024-01-30T11:56:31;28.50;52.20
39695;DHT22;25367;-35.352;149.036;2024-01-30T11:59:02;28.50;52.20
39695;DHT22;25367;-35.352;149.036;2024-01-30T12:01:34;28.60;52.30
39695;DHT22;25367;-35.352;149.036;2024-01-30T12:04:03;28.60;52.20
39695;DHT22;25367;-35.352;149.036;2024-01-30T12:06:33;28.60;52.20
39695;DHT22;25367;-35.352;149.036;2024-01-30T12:09:03;28.60;52.20
39695;DHT22;25367;-35.352;149.036;2024-01-30T12:11:32;28.70;52.30
39695;DHT22;25367;-35.352;149.036;2024-01-30T12:14:02;28.60;52.20
39695;DHT22;25367;-35.352;149.036;2024-01-30T12:16:34;28.70;52.20
39695;DHT22;25367;-35.352;149.036;2024-01-30T12:19:04;28.70;52.20
39695;DHT22;25367;-35.352;149.036;2024-01-30T12:21:33;28.70;52.30
39695;DHT22;25367;-35.352;149.036;2024-01-30T12:24:03;28.70;52.20
39695;DHT22;25367;-35.352;149.036;2024-01-30T12:26:33;28.70;52.20
39695;DHT22;25367;-35.352;149.036;2024-01-30T12:29:05;28.70;52.20
39695;DHT22;25367;-35.352;149.036;2024-01-30T12:31:38;28.70;52.20
39695;DHT22;25367;-35.352;149.036;2024-01-30T12:34:07;28.80;52.30
39695;DHT22;25367;-35.352;149.036;2024-01-30T12:36:37;28.70;52.20
39695;DHT22;25367;-35.352;149.036;2024-01-30T12:39:06;28.80;52.30
39695;DHT22;25367;-35.352;149.036;2024-01-30T12:41:36;28.80;52.20
39695;DHT22;25367;-35.352;149.036;2024-01-30T12:44:05;28.80;52.20
39695;DHT22;25367;-35.352;149.036;2024-01-30T12:46:40;28.80;52.30
39695;DHT22;25367;-35.352;149.036;2024-01-30T12:49:09;28.80;52.20
39695;DHT22;25367;-35.352;149.036;2024-01-30T12:51:39;28.80;52.30
39695;DHT22;25367;-35.352;149.036;2024-01-30T12:54:08;28.80;52.30
39695;DHT22;25367;-35.352;149.036;2024-01-30T12:56:38;28.80;52.20
39695;DHT22;25367;-35.352;149.036;2024-01-30T12:59:07;28.80;52.40
39695;DHT22;25367;-35.352;149.036;2024-01-30T13:01:39;28.90;52.30
39695;DHT22;25367;-35.352;149.036;2024-01-30T13:04:08;28.90;52.30
39695;DHT22;25367;-35.352;149.036;2024-01-30T13:06:38;28.90;52.20
39695;DHT22;25367;-35.352;149.036;2024-01-30T13:09:07;28.90;52.20
39695;DHT22;25367;-35.352;149.036;2024-01-30T13:11:37;28.90;52.30
39695;DHT22;25367;-35.352;149.036;2024-01-30T13:14:06;28.80;52.30
39695;DHT22;25367;-35.352;149.036;2024-01-30T13:16:39;28.90;52.30
39695;DHT22;25367;-35.352;149.036;2024-01-30T13:19:08;28.90;52.30
39695;DHT22;25367;-35.352;149.036;2024-01-30T13:21:38;28.90;52.30
39695;DHT22;25367;-35.352;149.036;2024-01-30T13:24:08;28.90;52.20
39695;DHT22;25367;-35.352;149.036;2024-01-30T13:26:37;28.90;52.20
39695;DHT22;25367;-35.352;149.036;2024-01-30T13:29:07;28.90;52.20
